Time;durP1;ratioP1;P1;durP2;ratioP2;P2;SDS_P1;SDS_P2;PMS_P1;PMS_P2;Temp;Humidity;BMP_temperature;BMP_pressure;BME280_temperature;BME280_humidity;BME280_pressure;Samples;Min_cycle;Max_cycle;Signal;HPM_P1;HPM_P2
2021/10/05 00:01:04;;;;;;;4.43;4.00;;;9.80;99.90;;;;;;4115677;28;20133;-74
2021/10/05 00:03:05;;;;;;;8.48;4.07;;;9.80;99.90;;;;;;4114645;28;20054;-74
2021/10/05 00:05:08;;;;;;;5.22;4.57;;;9.70;99.90;;;;;;4114206;28;20446;-74
2021/10/05 00:07:09;;;;;;;7.03;4.38;;;9.60;99.90;;;;;;4127556;28;20037;-74
2021/10/05 00:09:10;;;;;;;7.97;4.10;;;9.50;99.90;;;;;;4115861;28;20122;-74
2021/10/05 00:11:12;;;;;;;10.32;4.00;;;9.50;99.90;;;;;;4116120;28;20621;-74
2021/10/05 00:13:13;;;;;;;7.38;4.50;;;9.50;99.90;;;;;;4116415;28;20063;-74
2021/10/05 00:15:15;;;;;;;5.63;3.88;;;9.60;99.90;;;;;;4115843;28;20234;-74
2021/10/05 00:17:18;;;;;;;6.35;3.85;;;9.60;99.90;;;;;;4128242;28;20038;-74
2021/10/05 00:19:19;;;;;;;8.52;4.30;;;9.70;99.90;;;;;;4128613;28;20030;-75
2021/10/05 00:21:20;;;;;;;4.88;3.55;;;9.70;99.90;;;;;;4115780;28;20043;-75
2021/10/05 00:23:21;;;;;;;10.77;3.95;;;9.70;99.90;;;;;;4113607;28;20038;-75
2021/10/05 00:25:22;;;;;;;6.78;3.97;;;9.80;99.90;;;;;;4115423;28;20038;-74
2021/10/05 00:27:23;;;;;;;8.10;4.00;;;9.80;99.90;;;;;;4115128;28;20034;-74
2021/10/05 00:29:24;;;;;;;6.88;4.00;;;9.80;99.90;;;;;;4127615;28;20070;-74
2021/10/05 00:31:25;;;;;;;7.25;3.78;;;9.80;99.90;;;;;;4102757;28;20043;-75
2021/10/05 00:33:26;;;;;;;8.77;4.22;;;9.80;99.90;;;;;;4110294;28;20070;-74
2021/10/05 00:35:28;;;;;;;8.88;4.13;;;9.80;99.90;;;;;;4105806;28;20027;-75
2021/10/05 00:37:29;;;;;;;8.20;3.50;;;9.90;99.90;;;;;;4110803;28;20056;-75
2021/10/05 00:39:31;;;;;;;6.57;3.95;;;9.80;99.90;;;;;;4113271;28;20310;-75
2021/10/05 00:41:33;;;;;;;6.20;4.10;;;9.80;99.90;;;;;;4116523;28;20057;-74
2021/10/05 00:43:34;;;;;;;4.13;3.72;;;9.70;99.90;;;;;;4112890;28;20055;-73
2021/10/05 00:45:36;;;;;;;8.23;4.55;;;9.70;99.90;;;;;;4110233;28;20039;-75
2021/10/05 00:47:37;;;;;;;12.15;4.10;;;9.70;99.90;;;;;;4106311;28;20081;-75
2021/10/05 00:49:41;;;;;;;6.93;4.13;;;9.80;99.90;;;;;;4107893;28;20466;-75
2021/10/05 00:51:42;;;;;;;10.68;4.03;;;9.90;99.90;;;;;;4108004;28;20141;-75
2021/10/05 00:53:43;;;;;;;8.30;4.47;;;9.90;99.90;;;;;;4115199;28;20426;-73
2021/10/05 00:55:44;;;;;;;9.70;5.53;;;9.90;99.90;;;;;;4116387;28;20069;-73
2021/10/05 00:57:44;;;;;;;9.38;4.80;;;9.90;99.90;;;;;;4113204;28;20042;-73
2021/10/05 00:59:45;;;;;;;8.18;4.70;;;9.80;99.90;;;;;;4115418;28;20529;-71
2021/10/05 01:01:46;;;;;;;12.57;4.53;;;9.80;99.90;;;;;;4104803;28;20046;-72
2021/10/05 01:03:47;;;;;;;10.13;4.40;;;9.80;99.90;;;;;;4115576;28;20058;-73
2021/10/05 01:05:48;;;;;;;10.70;4.80;;;9.70;99.90;;;;;;4104047;28;20063;-73
2021/10/05 01:07:49;;;;;;;6.15;4.50;;;9.80;99.90;;;;;;4111318;28;20034;-73
2021/10/05 01:09:51;;;;;;;8.88;4.70;;;9.70;99.90;;;;;;4114674;28;20031;-72
2021/10/05 01:11:54;;;;;;;8.45;4.30;;;9.70;99.90;;;;;;4127174;28;20421;-72
2021/10/05 01:13:54;;;;;;;6.20;4.30;;;9.70;99.90;;;;;;4129865;28;20596;-72
2021/10/05 01:15:55;;;;;;;13.95;4.95;;;9.60;99.90;;;;;;4113300;28;20065;-73
2021/10/05 01:17:57;;;;;;;6.55;4.55;;;9.60;99.90;;;;;;4114256;28;20037;-72
2021/10/05 01:19:57;;;;;;;9.32;4.18;;;9.60;99.90;;;;;;4113859;28;20033;-72
2021/10/05 01:21:59;;;;;;;7.63;4.55;;;9.60;99.90;;;;;;4129728;28;20117;-73
2021/10/05 01:24:14;;;;;;;6.80;4.32;;;9.60;99.90;;;;;;4125009;28;20046;-73
2021/10/05 01:26:15;;;;;;;7.60;3.90;;;9.60;99.90;;;;;;4118916;28;20050;-72
2021/10/05 01:28:23;;;;;;;7.90;4.20;;;9.60;99.90;;;;;;4115651;28;20570;-70
2021/10/05 01:30:23;;;;;;;6.97;3.97;;;9.60;99.90;;;;;;4111024;28;20061;-72
2021/10/05 01:32:24;;;;;;;11.43;5.15;;;9.50;99.90;;;;;;4127915;28;20062;-72
2021/10/05 01:34:26;;;;;;;7.53;4.70;;;9.60;99.90;;;;;;4115106;28;20483;-73
2021/10/05 01:36:27;;;;;;;7.88;3.95;;;9.50;99.90;;;;;;4111906;28;20035;-73
2021/10/05 01:38:28;;;;;;;5.95;4.60;;;9.50;99.90;;;;;;4097941;28;20114;-73
2021/10/05 01:40:28;;;;;;;8.95;4.93;;;9.50;99.90;;;;;;4118016;28;20062;-73
2021/10/05 01:42:29;;;;;;;7.43;4.45;;;9.70;99.90;;;;;;4109550;28;20108;-73
2021/10/05 01:44:31;;;;;;;6.93;4.90;;;9.50;99.90;;;;;;4116051;28;20161;-73
2021/10/05 01:46:31;;;;;;;7.68;5.00;;;9.50;99.90;;;;;;4103882;28;20098;-73
2021/10/05 01:48:32;;;;;;;9.90;4.35;;;9.50;99.90;;;;;;4112733;28;20490;-73
2021/10/05 01:50:35;;;;;;;9.48;5.38;;;9.50;99.90;;;;;;4114243;28;20042;-72
2021/10/05 01:52:36;;;;;;;8.63;5.07;;;9.50;99.90;;;;;;4111717;28;20034;-73
2021/10/05 01:54:37;;;;;;;11.85;5.22;;;9.50;99.90;;;;;;4124938;28;20038;-73
2021/10/05 01:56:38;;;;;;;7.72;4.68;;;9.50;99.90;;;;;;4100043;28;20046;-73
2021/10/05 01:58:39;;;;;;;7.00;4.10;;;9.40;99.90;;;;;;4113240;28;20042;-71
2021/10/05 02:00:40;;;;;;;9.52;5.20;;;9.40;99.90;;;;;;4114269;28;20071;-72
2021/10/05 02:02:41;;;;;;;5.35;4.82;;;9.40;99.90;;;;;;4112150;28;20750;-73
2021/10/05 02:04:44;;;;;;;8.52;5.13;;;9.40;99.90;;;;;;4097419;28;20039;-73
2021/10/05 02:06:45;;;;;;;8.48;5.32;;;9.40;99.90;;;;;;4112897;28;20544;-73
2021/10/05 02:08:46;;;;;;;7.63;4.72;;;9.40;99.90;;;;;;4102415;28;20034;-72
2021/10/05 02:10:47;;;;;;;10.27;4.82;;;9.40;99.90;;;;;;4110752;28;20039;-73
2021/10/05 02:12:48;;;;;;;8.68;5.30;;;9.30;99.90;;;;;;4101243;28;20046;-72
2021/10/05 02:14:49;;;;;;;8.10;4.60;;;9.30;99.90;;;;;;4130444;28;20045;-72
2021/10/05 02:16:50;;;;;;;6.03;4.53;;;9.20;99.90;;;;;;4110634;28;20050;-72
2021/10/05 02:18:51;;;;;;;8.98;4.72;;;9.30;99.90;;;;;;4128153;28;20105;-72
2021/10/05 02:20:51;;;;;;;11.75;4.60;;;9.40;99.90;;;;;;4096924;28;20095;-73
2021/10/05 02:22:52;;;;;;;8.68;4.63;;;9.40;99.90;;;;;;4097941;28;20051;-73
2021/10/05 02:24:53;;;;;;;6.78;4.75;;;9.50;99.90;;;;;;4114941;28;20043;-73
2021/10/05 02:26:59;;;;;;;7.88;5.13;;;9.80;99.90;;;;;;4122720;28;20041;-72
2021/10/05 02:29:01;;;;;;;7.20;5.03;;;9.40;99.90;;;;;;4109567;28;20046;-72
2021/10/05 02:31:01;;;;;;;6.60;4.18;;;9.10;99.90;;;;;;4124711;28;20485;-73
2021/10/05 02:33:03;;;;;;;8.20;4.68;;;9.40;99.90;;;;;;4113076;28;20038;-73
2021/10/05 02:35:05;;;;;;;7.88;4.55;;;9.50;99.90;;;;;;4096918;28;20039;-72
2021/10/05 02:37:06;;;;;;;7.13;4.85;;;9.50;99.90;;;;;;4114951;28;20054;-72
2021/10/05 02:39:08;;;;;;;10.18;4.78;;;9.40;99.90;;;;;;4112526;28;20425;-72
2021/10/05 02:41:09;;;;;;;12.60;5.63;;;9.40;99.90;;;;;;4111984;28;20042;-72
2021/10/05 02:43:09;;;;;;;10.80;5.65;;;9.40;99.90;;;;;;4127869;28;20062;-72
2021/10/05 02:45:10;;;;;;;5.95;4.45;;;9.30;99.90;;;;;;4115225;28;20058;-72
2021/10/05 02:47:13;;;;;;;11.30;5.20;;;9.20;99.90;;;;;;4112478;28;20035;-72
2021/10/05 02:49:18;;;;;;;8.98;4.78;;;8.50;99.90;;;;;;4125282;28;20058;-73
2021/10/05 02:51:19;;;;;;;8.93;5.80;;;9.20;99.90;;;;;;4097084;29;20063;-73
2021/10/05 02:53:22;;;;;;;8.35;5.78;;;9.20;99.90;;;;;;4114091;28;20043;-73
2021/10/05 02:55:23;;;;;;;16.85;5.82;;;;;;;;;;4112144;28;20554;-72
2021/10/05 02:57:24;;;;;;;8.63;5.65;;;9.20;99.90;;;;;;4110561;28;20071;-73
2021/10/05 02:59:28;;;;;;;9.90;6.03;;;7.60;99.90;;;;;;4118642;28;20034;-73
2021/10/05 03:01:29;;;;;;;8.18;4.80;;;;;;;;;;4112926;28;20039;-72
2021/10/05 03:03:30;;;;;;;6.90;5.55;;;8.90;99.90;;;;;;4128384;28;20050;-73
2021/10/05 03:05:31;;;;;;;7.57;4.82;;;;;;;;;;4113172;28;20094;-73
2021/10/05 03:07:33;;;;;;;13.43;5.80;;;;;;;;;;4128141;28;20464;-73
2021/10/05 03:09:34;;;;;;;7.47;5.30;;;;;;;;;;4112755;28;20050;-73
2021/10/05 03:11:36;;;;;;;10.30;5.72;;;;;;;;;;4101607;28;20039;-73
2021/10/05 03:13:38;;;;;;;8.27;5.45;;;;;;;;;;4100749;28;20039;-73
2021/10/05 03:15:39;;;;;;;6.75;5.45;;;;;;;;;;4111883;28;20034;-73
2021/10/05 03:17:40;;;;;;;7.55;5.40;;;;;;;;;;4104438;28;20074;-73
2021/10/05 03:19:41;;;;;;;6.70;5.97;;;;;;;;;;4129867;28;20042;-73
2021/10/05 03:21:43;;;;;;;10.73;6.38;;;;;;;;;;4126999;28;20038;-73
2021/10/05 03:23:43;;;;;;;13.35;6.97;;;9.10;99.90;;;;;;4126470;28;20174;-73
2021/10/05 03:25:44;;;;;;;9.60;6.43;;;9.10;99.90;;;;;;4111338;28;20593;-72
2021/10/05 03:27:45;;;;;;;8.70;6.38;;;9.10;99.90;;;;;;4125658;28;20509;-73
2021/10/05 03:29:46;;;;;;;8.02;6.63;;;9.10;99.90;;;;;;4112264;28;20038;-72
2021/10/05 03:31:46;;;;;;;9.40;7.00;;;9.10;99.90;;;;;;4132334;28;20517;-72
2021/10/05 03:33:47;;;;;;;8.48;6.57;;;9.10;99.90;;;;;;4109199;28;20034;-73
2021/10/05 03:35:48;;;;;;;12.20;6.65;;;9.20;99.90;;;;;;4111831;28;20043;-73
2021/10/05 03:37:48;;;;;;;12.40;7.03;;;9.20;99.90;;;;;;4112446;28;20035;-72
2021/10/05 03:39:49;;;;;;;10.20;6.68;;;9.30;99.90;;;;;;4097400;28;20113;-72
2021/10/05 03:41:50;;;;;;;8.85;6.35;;;9.30;99.90;;;;;;4112191;28;20042;-72
2021/10/05 03:43:51;;;;;;;6.97;5.80;;;9.10;99.90;;;;;;4114258;28;20042;-71
2021/10/05 03:45:52;;;;;;;9.00;5.65;;;9.90;99.90;;;;;;4114153;28;20058;-72
2021/10/05 03:47:52;;;;;;;8.88;6.20;;;10.10;99.90;;;;;;4109072;28;20455;-72
2021/10/05 03:49:53;;;;;;;7.07;5.80;;;9.30;99.90;;;;;;4110009;28;20130;-73
2021/10/05 03:51:54;;;;;;;8.65;5.32;;;9.20;99.90;;;;;;4113294;28;20371;-71
2021/10/05 03:53:55;;;;;;;8.15;5.35;;;9.10;99.90;;;;;;4111865;28;20042;-71
2021/10/05 03:55:58;;;;;;;8.30;5.30;;;9.30;99.90;;;;;;4111579;28;20138;-73
2021/10/05 03:57:59;;;;;;;8.88;5.70;;;9.40;99.90;;;;;;4111555;28;20450;-72
2021/10/05 03:59:59;;;;;;;9.95;4.97;;;9.10;99.90;;;;;;4108370;28;20036;-72
2021/10/05 04:02:00;;;;;;;10.48;6.88;;;9.30;99.90;;;;;;4109285;28;20051;-72
2021/10/05 04:04:01;;;;;;;6.13;5.53;;;9.40;99.90;;;;;;4114557;28;20498;-73
2021/10/05 04:06:02;;;;;;;9.55;4.68;;;9.70;99.90;;;;;;4130409;28;20142;-72
2021/10/05 04:08:03;;;;;;;8.90;5.15;;;10.30;99.90;;;;;;4088537;29;20111;-73
2021/10/05 04:10:09;;;;;;;9.75;5.47;;;;;;;;;;4114149;28;20046;-73
2021/10/05 04:12:13;;;;;;;9.65;6.20;;;;;;;;;;4115434;28;20371;-73
2021/10/05 04:14:18;;;;;;;6.68;5.40;;;;;;;;;;4117079;28;20067;-72
2021/10/05 04:16:22;;;;;;;8.38;5.18;;;;;;;;;;4115908;28;20441;-72
2021/10/05 04:18:27;;;;;;;7.20;5.07;;;;;;;;;;4113786;28;20058;-73
2021/10/05 04:20:31;;;;;;;6.20;4.90;;;;;;;;;;4114454;28;20063;-73
2021/10/05 04:22:35;;;;;;;6.30;5.07;;;;;;;;;;4114928;28;20038;-72
2021/10/05 04:24:38;;;;;;;13.90;5.40;;;;;;;;;;4114143;28;20150;-73
2021/10/05 04:26:40;;;;;;;6.13;5.05;;;;;;;;;;4114204;28;20050;-72
2021/10/05 04:28:43;;;;;;;6.05;5.05;;;;;;;;;;4097886;28;20486;-73
2021/10/05 04:30:45;;;;;;;8.67;5.63;;;;;;;;;;4127592;28;20062;-73
2021/10/05 04:32:47;;;;;;;8.60;5.55;;;;;;;;;;4097999;28;20842;-74
2021/10/05 04:34:50;;;;;;;12.07;5.00;;;;;;;;;;4115342;28;20049;-72
2021/10/05 04:36:52;;;;;;;7.17;4.80;;;;;;;;;;4115211;28;20096;-72
2021/10/05 04:38:54;;;;;;;12.50;5.53;;;;;;;;;;4106297;28;20439;-72
2021/10/05 04:40:57;;;;;;;9.87;5.83;;;;;;;;;;4108941;28;20360;-72
2021/10/05 04:42:59;;;;;;;7.00;5.73;;;;;;;;;;4114585;28;20306;-72
2021/10/05 04:45:04;;;;;;;6.68;5.20;;;;;;;;;;4129402;28;20458;-73
2021/10/05 04:47:06;;;;;;;5.80;5.20;;;;;;;;;;4127788;28;20069;-73
2021/10/05 04:49:08;;;;;;;10.23;5.43;;;;;;;;;;4112257;28;20069;-70
2021/10/05 04:51:14;;;;;;;7.45;4.68;;;;;;;;;;4115492;28;20047;-73
2021/10/05 04:53:17;;;;;;;9.93;5.43;;;;;;;;;;4118677;28;20138;-73
2021/10/05 04:55:21;;;;;;;6.20;5.60;;;;;;;;;;4117967;28;20062;-73
2021/10/05 04:57:25;;;;;;;12.32;5.72;;;;;;;;;;4111882;28;20038;-72
2021/10/05 04:59:31;;;;;;;5.60;4.95;;;;;;;;;;4118898;28;20148;-72
2021/10/05 05:01:35;;;;;;;5.47;4.75;;;;;;;;;;4113712;28;20376;-72
2021/10/05 05:03:39;;;;;;;10.07;5.18;;;;;;;;;;4116389;28;20062;-71
2021/10/05 05:05:43;;;;;;;8.25;5.60;;;;;;;;;;4107215;28;20071;-71
2021/10/05 05:07:47;;;;;;;5.63;4.63;;;;;;;;;;4111897;28;20524;-73
2021/10/05 05:09:51;;;;;;;5.43;4.57;;;;;;;;;;4112081;28;20039;-73
2021/10/05 05:11:55;;;;;;;6.28;4.57;;;;;;;;;;4111125;28;20046;-72
2021/10/05 05:14:07;;;;;;;7.28;4.60;;;;;;;;;;4120553;28;20129;-72
2021/10/05 05:16:11;;;;;;;8.38;4.20;;;;;;;;;;4124347;28;20030;-73
2021/10/05 05:18:15;;;;;;;6.68;4.40;;;;;;;;;;4122240;28;20503;-73
2021/10/05 05:20:20;;;;;;;6.30;4.60;;;;;;;;;;4124917;28;20513;-73
2021/10/05 05:22:24;;;;;;;4.68;4.18;;;;;;;;;;4115334;28;20081;-73
2021/10/05 05:24:31;;;;;;;6.40;4.38;;;;;;;;;;4125413;28;20066;-72
2021/10/05 05:26:36;;;;;;;6.40;4.68;;;;;;;;;;4119841;28;20102;-72
2021/10/05 05:28:40;;;;;;;6.97;5.38;;;;;;;;;;4130856;28;20042;-72
2021/10/05 05:30:44;;;;;;;10.25;4.85;;;;;;;;;;4130324;28;20501;-73
2021/10/05 05:32:48;;;;;;;7.07;5.05;;;;;;;;;;4109606;28;20059;-73
2021/10/05 05:34:52;;;;;;;7.00;5.25;;;;;;;;;;4105170;28;20126;-73
2021/10/05 05:36:57;;;;;;;8.15;5.25;;;;;;;;;;4118323;28;20042;-71
2021/10/05 05:39:02;;;;;;;7.57;5.13;;;;;;;;;;4110134;28;20053;-71
2021/10/05 05:41:06;;;;;;;9.23;5.50;;;;;;;;;;4112864;28;20057;-72
2021/10/05 05:43:10;;;;;;;6.07;4.75;;;;;;;;;;4113754;28;20042;-72
2021/10/05 05:45:14;;;;;;;4.70;4.25;;;;;;;;;;4113271;28;20419;-72
2021/10/05 05:47:18;;;;;;;6.55;4.82;;;;;;;;;;4126206;28;20459;-73
2021/10/05 05:49:22;;;;;;;5.07;4.40;;;;;;;;;;4112345;28;20054;-73
2021/10/05 05:51:26;;;;;;;5.78;4.47;;;;;;;;;;4108851;28;20477;-73
2021/10/05 05:53:31;;;;;;;8.35;5.20;;;;;;;;;;4116091;28;20041;-73
2021/10/05 05:55:35;;;;;;;5.78;4.32;;;;;;;;;;4125873;28;20452;-72
2021/10/05 05:57:39;;;;;;;8.05;5.35;;;;;;;;;;4113413;28;20505;-72
2021/10/05 05:59:43;;;;;;;6.22;4.35;;;;;;;;;;4111110;28;20137;-72
2021/10/05 06:01:48;;;;;;;9.48;4.53;;;;;;;;;;4118419;28;20062;-72
2021/10/05 06:03:52;;;;;;;5.63;4.40;;;;;;;;;;4106726;28;20050;-72
2021/10/05 06:05:57;;;;;;;6.88;4.47;;;;;;;;;;4122521;28;20080;-72
2021/10/05 06:08:01;;;;;;;5.05;4.55;;;;;;;;;;4127056;28;20062;-71
2021/10/05 06:10:07;;;;;;;8.68;4.72;;;;;;;;;;4126410;28;20042;-72
2021/10/05 06:12:16;;;;;;;10.07;4.57;;;;;;;;;;4125955;28;20038;-72
2021/10/05 06:14:26;;;;;;;5.05;4.47;;;;;;;;;;4125305;28;20046;-72
2021/10/05 06:16:30;;;;;;;7.28;4.38;;;;;;;;;;4112279;28;20097;-71
2021/10/05 06:18:34;;;;;;;5.05;4.00;;;;;;;;;;4125344;28;20114;-71
2021/10/05 06:20:38;;;;;;;6.00;5.40;;;;;;;;;;4112607;28;20058;-73
2021/10/05 06:22:43;;;;;;;6.00;4.43;;;;;;;;;;4124479;28;20057;-72
2021/10/05 06:24:48;;;;;;;6.05;5.10;;;;;;;;;;4111924;28;20391;-72
2021/10/05 06:26:52;;;;;;;6.78;4.70;;;;;;;;;;4112784;28;20710;-71
2021/10/05 06:28:57;;;;;;;7.57;4.43;;;;;;;;;;4128295;28;20050;-72
2021/10/05 06:31:01;;;;;;;5.38;3.92;;;;;;;;;;4126497;28;20101;-72
2021/10/05 06:33:06;;;;;;;4.55;4.03;;;;;;;;;;4127173;28;20053;-72
2021/10/05 06:35:12;;;;;;;5.20;4.30;;;;;;;;;;4125300;28;20347;-71
2021/10/05 06:37:16;;;;;;;8.40;4.50;;;;;;;;;;4111469;28;20089;-72
2021/10/05 06:39:20;;;;;;;7.03;6.32;;;;;;;;;;4114416;28;20494;-72
2021/10/05 06:41:25;;;;;;;6.35;4.55;;;;;;;;;;4110924;28;20070;-72
2021/10/05 06:43:29;;;;;;;5.25;4.28;;;;;;;;;;4112879;28;20056;-71
2021/10/05 06:45:34;;;;;;;9.35;5.65;;;;;;;;;;4112400;28;20043;-71
2021/10/05 06:47:38;;;;;;;9.10;4.85;;;;;;;;;;4116741;28;20650;-71
2021/10/05 06:49:42;;;;;;;11.63;4.80;;;;;;;;;;4112872;28;20050;-72
2021/10/05 06:51:47;;;;;;;7.28;5.05;;;;;;;;;;4118170;28;20477;-71
2021/10/05 06:53:51;;;;;;;8.55;4.82;;;;;;;;;;4111886;28;20066;-71
2021/10/05 06:55:55;;;;;;;12.93;5.15;;;;;;;;;;4113392;28;20137;-72
2021/10/05 06:58:00;;;;;;;7.35;5.68;;;;;;;;;;4121762;28;20089;-71
2021/10/05 07:00:11;;;;;;;5.95;4.95;;;;;;;;;;4104279;28;20043;-72
2021/10/05 07:02:15;;;;;;;11.13;5.20;;;;;;;;;;4116565;28;20042;-71
2021/10/05 07:04:20;;;;;;;7.28;5.00;;;;;;;;;;4103300;28;20070;-71
2021/10/05 07:06:24;;;;;;;6.68;5.45;;;;;;;;;;4113239;28;20065;-71
2021/10/05 07:08:29;;;;;;;9.02;5.50;;;;;;;;;;4124360;28;20050;-72
2021/10/05 07:10:34;;;;;;;7.45;4.68;;;;;;;;;;4095967;28;20054;-72
2021/10/05 07:12:39;;;;;;;8.05;5.25;;;;;;;;;;4128628;28;20046;-72
2021/10/05 07:14:43;;;;;;;8.35;5.93;;;;;;;;;;4113938;28;20512;-72
2021/10/05 07:16:48;;;;;;;17.80;5.47;;;;;;;;;;4113088;28;20079;-71
2021/10/05 07:18:52;;;;;;;7.88;5.25;;;;;;;;;;4109628;28;20046;-73
2021/10/05 07:20:56;;;;;;;7.35;4.75;;;;;;;;;;4112030;28;20093;-72
2021/10/05 07:23:03;;;;;;;10.30;4.90;;;;;;;;;;4128539;28;20043;-72
2021/10/05 07:25:08;;;;;;;9.18;5.47;;;;;;;;;;4125547;28;20122;-72
2021/10/05 07:27:13;;;;;;;6.93;4.97;;;;;;;;;;4127191;28;20069;-73
2021/10/05 07:29:17;;;;;;;8.43;4.72;;;;;;;;;;4111222;28;20101;-73
2021/10/05 07:31:21;;;;;;;8.05;5.72;;;;;;;;;;4114190;28;20406;-73
2021/10/05 07:33:27;;;;;;;10.70;6.45;;;;;;;;;;4128727;28;20031;-72
2021/10/05 07:35:32;;;;;;;7.15;4.97;;;;;;;;;;4128164;28;20129;-72
2021/10/05 07:37:37;;;;;;;6.55;5.47;;;;;;;;;;4113847;28;20082;-73
2021/10/05 07:39:42;;;;;;;7.20;5.18;;;;;;;;;;4117347;28;20069;-71
2021/10/05 07:41:47;;;;;;;9.85;5.07;;;;;;;;;;4116181;28;20043;-71
2021/10/05 07:43:51;;;;;;;8.00;5.53;;;;;;;;;;4107545;28;20055;-72
2021/10/05 07:45:58;;;;;;;6.57;4.60;;;;;;;;;;4099030;28;20086;-72
2021/10/05 07:48:04;;;;;;;7.50;5.90;;;;;;;;;;4116075;28;20493;-72
2021/10/05 07:50:11;;;;;;;6.43;4.72;;;;;;;;;;4100887;28;20043;-72
2021/10/05 07:52:18;;;;;;;5.05;4.40;;;;;;;;;;4102618;28;20035;-72
2021/10/05 07:54:24;;;;;;;8.52;4.97;;;;;;;;;;4117757;28;20031;-71
2021/10/05 07:56:32;;;;;;;6.03;4.78;;;;;;;;;;4115404;28;20519;-71
2021/10/05 07:58:37;;;;;;;6.18;4.57;;;;;;;;;;4126802;28;20072;-72
2021/10/05 08:00:43;;;;;;;6.15;4.53;;;;;;;;;;4106098;28;20057;-72
2021/10/05 08:02:47;;;;;;;5.35;4.85;;;;;;;;;;4104867;28;20494;-71
2021/10/05 08:04:53;;;;;;;10.50;4.70;;;;;;;;;;4114683;28;20049;-72
2021/10/05 08:07:00;;;;;;;6.03;4.05;;;;;;;;;;4116026;28;20047;-71
2021/10/05 08:09:06;;;;;;;4.65;3.85;;;;;;;;;;4112231;28;20450;-71
2021/10/05 08:11:12;;;;;;;6.43;4.20;;;;;;;;;;4114724;28;20034;-72
2021/10/05 08:13:17;;;;;;;5.45;4.10;;;;;;;;;;4113214;28;20030;-72
2021/10/05 08:15:21;;;;;;;7.45;4.60;;;;;;;;;;4129377;28;20062;-73
2021/10/05 08:17:26;;;;;;;7.60;4.40;;;;;;;;;;4112675;28;20506;-72
2021/10/05 08:19:30;;;;;;;7.25;4.10;;;;;;;;;;4127498;28;20572;-72
2021/10/05 08:21:35;;;;;;;7.15;4.70;;;;;;;;;;4126211;28;20500;-71
2021/10/05 08:23:40;;;;;;;5.65;4.10;;;;;;;;;;4115252;28;20046;-74
2021/10/05 08:25:47;;;;;;;5.22;4.25;;;;;;;;;;4114002;28;20062;-72
2021/10/05 08:27:51;;;;;;;8.30;4.43;;;;;;;;;;4115356;28;20085;-72
2021/10/05 08:29:56;;;;;;;7.10;4.72;;;;;;;;;;4130890;28;20046;-71
2021/10/05 08:32:02;;;;;;;12.98;5.07;;;;;;;;;;4128301;28;20042;-71
2021/10/05 08:34:09;;;;;;;5.47;4.13;;;;;;;;;;4114241;28;20039;-71
2021/10/05 08:36:18;;;;;;;5.35;4.57;;;;;;;;;;4111256;28;20047;-71
2021/10/05 08:38:24;;;;;;;6.05;4.50;;;;;;;;;;4114875;28;20514;-72
2021/10/05 08:40:29;;;;;;;9.55;4.68;;;;;;;;;;4108270;28;20483;-72
2021/10/05 08:42:34;;;;;;;5.20;4.18;;;;;;;;;;4126169;28;20105;-72
2021/10/05 08:44:41;;;;;;;8.35;5.03;;;;;;;;;;4084864;28;20423;-72
2021/10/05 08:46:47;;;;;;;6.80;4.32;;;;;;;;;;4111555;28;20634;-73
2021/10/05 08:48:54;;;;;;;8.77;4.75;;;;;;;;;;4114724;28;20030;-72
2021/10/05 08:51:01;;;;;;;7.38;4.80;;;;;;;;;;4111041;28;20031;-72
2021/10/05 08:53:08;;;;;;;7.68;5.03;;;;;;;;;;4114858;28;20049;-72
2021/10/05 08:55:14;;;;;;;5.80;5.22;;;;;;;;;;4114652;28;20490;-72
2021/10/05 08:57:21;;;;;;;5.90;5.05;;;;;;;;;;4112645;28;20049;-72
2021/10/05 08:59:28;;;;;;;8.07;5.05;;;;;;;;;;4112566;28;20438;-72
2021/10/05 09:01:38;;;;;;;6.90;4.50;;;;;;;;;;4122164;28;20089;-72
2021/10/05 09:04:06;;;;;;;5.10;4.38;;;;;;;;;;4112600;28;20031;-72
2021/10/05 09:06:17;;;;;;;6.63;5.50;;;;;;;;;;4112944;28;20041;-73
2021/10/05 09:08:31;;;;;;;7.35;4.80;;;;;;;;;;4128179;28;20446;-73
2021/10/05 09:10:38;;;;;;;8.98;4.47;;;;;;;;;;4104621;28;20122;-72
2021/10/05 09:12:53;;;;;;;5.68;4.40;;;;;;;;;;4123824;28;20513;-73
2021/10/05 09:15:12;;;;;;;7.78;5.40;;;;;;;;;;4127599;28;20046;-74
2021/10/05 09:17:32;;;;;;;8.68;4.82;;;;;;;;;;4111752;28;20230;-73
2021/10/05 09:19:45;;;;;;;6.82;4.43;;;;;;;;;;4112678;28;20458;-73
2021/10/05 09:21:59;;;;;;;8.38;5.05;;;;;;;;;;4126775;28;20038;-72
2021/10/05 09:24:32;;;;;;;9.02;5.55;;;;;;;;;;4111646;28;20047;-72
2021/10/05 09:26:50;;;;;;;6.40;4.68;;;;;;;;;;4112968;28;20119;-73
2021/10/05 09:29:16;;;;;;;6.55;4.72;;;;;;;;;;4112776;28;20073;-73
2021/10/05 09:31:44;;;;;;;8.30;5.03;;;;;;;;;;4126319;28;20153;-73
2021/10/05 09:34:08;;;;;;;6.20;4.38;;;;;;;;;;4113214;28;20497;-73
2021/10/05 09:36:25;;;;;;;5.43;4.72;;;;;;;;;;4098036;28;20074;-73
2021/10/05 09:38:43;;;;;;;9.85;4.85;;;;;;;;;;4112131;28;20133;-70
2021/10/05 09:41:11;;;;;;;9.18;5.28;;;;;;;;;;4097687;28;20035;-72
2021/10/05 09:43:41;;;;;;;8.15;4.45;;;;;;;;;;4115435;28;20450;-73
2021/10/05 09:45:42;;;;;;;4.63;4.20;;;;;;;;;;4101576;28;20039;-72
2021/10/05 09:47:45;;;;;;;7.50;3.97;;;;;;;;;;4115007;28;20034;-73
2021/10/05 09:49:46;;;;;;;;;;;;;;;;;;4114943;28;20121;-73
2021/10/05 09:51:56;;;;;;;7.45;4.32;;;;;;;;;;4128465;28;19921;-71
2021/10/05 09:53:58;;;;;;;5.43;3.85;;;;;;;;;;4107220;28;20048;-71
2021/10/05 09:55:59;;;;;;;8.38;4.57;;;;;;;;;;4126051;28;20633;-72
2021/10/05 09:58:00;;;;;;;6.55;3.35;;;;;;;;;;4094536;28;20518;-73
2021/10/05 10:00:03;;;;;;;10.10;4.35;;;;;;;;;;4112905;28;20078;-71
2021/10/05 10:02:04;;;;;;;11.82;4.80;;;;;;;;;;4124043;28;20101;-71
2021/10/05 10:04:06;;;;;;;5.60;3.85;;;;;;;;;;4096353;28;20182;-72
2021/10/05 10:06:07;;;;;;;7.90;4.32;;;;;;;;;;4111668;28;20178;-73
2021/10/05 10:08:08;;;;;;;6.47;3.88;;;;;;;;;;4111105;28;20417;-74
2021/10/05 10:10:13;;;;;;;7.70;3.70;;;;;;;;;;4111983;28;20070;-72
2021/10/05 10:12:14;;;;;;;7.28;4.03;;;;;;;;;;4114951;28;20049;-72
2021/10/05 10:14:19;;;;;;;5.50;3.40;;;;;;;;;;4125273;28;20446;-72
2021/10/05 10:16:20;;;;;;;9.23;3.53;;;;;;;;;;4113924;28;20042;-73
2021/10/05 10:18:24;;;;;;;6.65;3.20;;;;;;;;;;4116782;28;20070;-73
2021/10/05 10:20:26;;;;;;;5.25;2.67;;;;;;;;;;4111043;28;20042;-72
2021/10/05 10:22:28;;;;;;;7.72;2.90;;;;;;;;;;4111861;28;20085;-72
2021/10/05 10:24:29;;;;;;;6.40;3.15;;;;;;;;;;4114570;28;20516;-72
2021/10/05 10:26:30;;;;;;;7.57;3.10;;;;;;;;;;4114926;28;20086;-71
2021/10/05 10:28:37;;;;;;;6.88;2.80;;;;;;;;;;4113705;28;20747;-71
2021/10/05 10:30:49;;;;;;;5.75;3.20;;;;;;;;;;4113984;28;20035;-71
2021/10/05 10:32:53;;;;;;;10.73;2.85;;;;;;;;;;4124956;28;20038;-72
2021/10/05 10:35:05;;;;;;;6.55;3.13;;;;;;;;;;4111541;28;20130;-73
2021/10/05 10:37:10;;;;;;;7.75;3.30;;;;;;;;;;4113575;28;20501;-73
2021/10/05 10:39:17;;;;;;;7.55;3.28;;;;;;;;;;4096026;28;20442;-72
2021/10/05 10:41:21;;;;;;;5.82;3.60;;;;;;;;;;4128171;28;20030;-70
2021/10/05 10:43:25;;;;;;;8.23;3.08;;;;;;;;;;4113732;28;20126;-71
2021/10/05 10:45:26;;;;;;;4.80;2.60;;;;;;;;;;4109967;28;20542;-71
2021/10/05 10:47:37;;;;;;;7.68;3.03;;;;;;;;;;4114068;28;20042;-71
2021/10/05 10:49:38;;;;;;;4.70;3.08;;;;;;;;;;4111314;28;20042;-72
2021/10/05 10:51:44;;;;;;;5.82;3.60;;;;;;;;;;4125419;28;20034;-70
2021/10/05 10:53:46;;;;;;;5.10;2.67;;;;;;;;;;4112321;28;20514;-73
2021/10/05 10:55:48;;;;;;;6.00;2.70;;;;;;;;;;4097804;28;20114;-72
2021/10/05 10:57:56;;;;;;;3.47;2.50;;;;;;;;;;4096933;28;20059;-70
2021/10/05 11:00:15;;;;;;;7.47;3.40;;;;;;;;;;4094117;28;20055;-72
2021/10/05 11:02:16;;;;;;;5.28;3.10;;;;;;;;;;4118936;28;20406;-71
2021/10/05 11:04:19;;;;;;;8.82;3.00;;;;;;;;;;4116514;28;20525;-70
2021/10/05 11:06:21;;;;;;;6.45;3.60;;;;;;;;;;4105739;28;20095;-71
2021/10/05 11:08:22;;;;;;;5.60;2.60;;;;;;;;;;4115657;28;20209;-72
2021/10/05 11:10:26;;;;;;;4.47;2.42;;;;;;;;;;4114005;28;20561;-72
2021/10/05 11:12:27;;;;;;;4.82;2.58;;;;;;;;;;4113532;28;20030;-73
2021/10/05 11:14:31;;;;;;;4.05;2.55;;;;;;;;;;4115005;28;20691;-72
2021/10/05 11:16:35;;;;;;;4.78;2.60;;;;;;;;;;4104168;28;20035;-72
2021/10/05 11:18:36;;;;;;;5.00;2.85;;;;;;;;;;4113764;28;20031;-72
2021/10/05 11:20:48;;;;;;;5.60;2.65;;;;;;;;;;4102118;28;20111;-71
2021/10/05 11:22:50;;;;;;;6.47;2.60;;;;;;;;;;4115846;28;20099;-72
2021/10/05 11:24:51;;;;;;;6.15;2.97;;;;;;;;;;4115573;28;20121;-71
2021/10/05 11:26:52;;;;;;;3.17;2.33;;;;;;;;;;4127728;28;20538;-72
2021/10/05 11:28:53;;;;;;;4.32;2.63;;;;;;;;;;4131520;28;20517;-71
2021/10/05 11:30:56;;;;;;;7.00;2.95;;;;;;;;;;4110526;28;20051;-72
2021/10/05 11:32:58;;;;;;;4.25;3.03;;;;;;;;;;4111603;28;20121;-72
2021/10/05 11:35:00;;;;;;;6.13;2.50;;;;;;;;;;4117349;28;20042;-72
2021/10/05 11:37:02;;;;;;;5.77;2.67;;;;;;;;;;4131040;28;20080;-74
2021/10/05 11:39:05;;;;;;;10.20;2.95;;;;;;;;;;4103275;28;20420;-72
2021/10/05 11:41:07;;;;;;;3.90;2.30;;;;;;;;;;4108876;28;20117;-73
2021/10/05 11:43:08;;;;;;;5.40;2.72;;;;;;;;;;4114603;28;20038;-72
2021/10/05 11:45:09;;;;;;;6.57;2.30;;;;;;;;;;4100077;28;20134;-72
2021/10/05 11:47:13;;;;;;;5.95;2.63;;;;;;;;;;4114394;28;20046;-72
2021/10/05 11:49:18;;;;;;;5.57;2.40;;;;;;;;;;4117544;28;20405;-73
2021/10/05 11:51:23;;;;;;;4.82;2.30;;;;;;;;;;4106008;28;20023;-72